sensor_id;sensor_type;location;lat;lon;timestamp;pressure;altitude;pressure_sealevel;temperature
30765;BMP180;494;48.744;10.106;2022-09-21T00:02:00;96450.00;;;9.10
30765;BMP180;494;48.744;10.106;2022-09-21T00:04:28;96111.00;;;9.10
30765;BMP180;494;48.744;10.106;2022-09-21T00:06:56;96449.00;;;9.00
30765;BMP180;494;48.744;10.106;2022-09-21T00:09:25;96443.00;;;9.00
30765;BMP180;494;48.744;10.106;2022-09-21T00:11:53;96444.00;;;8.80
30765;BMP180;494;48.744;10.106;2022-09-21T00:14:24;96462.00;;;8.70
30765;BMP180;494;48.744;10.106;2022-09-21T00:16:54;96437.00;;;8.70
30765;BMP180;494;48.744;10.106;2022-09-21T00:19:23;96271.00;;;8.70
30765;BMP180;494;48.744;10.106;2022-09-21T00:21:53;96443.00;;;8.80
30765;BMP180;494;48.744;10.106;2022-09-21T00:24:22;96445.00;;;8.80
30765;BMP180;494;48.744;10.106;2022-09-21T00:26:51;96317.00;;;8.70
30765;BMP180;494;48.744;10.106;2022-09-21T00:29:19;96444.00;;;8.80
30765;BMP180;494;48.744;10.106;2022-09-21T00:31:48;96308.00;;;8.70
30765;BMP180;494;48.744;10.106;2022-09-21T00:34:17;96310.00;;;8.70
30765;BMP180;494;48.744;10.106;2022-09-21T00:36:46;96134.00;;;8.60
30765;BMP180;494;48.744;10.106;2022-09-21T00:39:15;96447.00;;;8.50
30765;BMP180;494;48.744;10.106;2022-09-21T00:41:43;96115.00;;;8.50
30765;BMP180;494;48.744;10.106;2022-09-21T00:44:30;96480.00;;;8.30
30765;BMP180;494;48.744;10.106;2022-09-21T00:47:05;95564.00;;;8.30
30765;BMP180;494;48.744;10.106;2022-09-21T00:49:39;96439.00;;;8.20
30765;BMP180;494;48.744;10.106;2022-09-21T00:52:11;96193.00;;;8.20
30765;BMP180;494;48.744;10.106;2022-09-21T00:54:45;96504.00;;;8.10
30765;BMP180;494;48.744;10.106;2022-09-21T00:57:16;96442.00;;;8.00
30765;BMP180;494;48.744;10.106;2022-09-21T00:59:49;96145.00;;;8.00
30765;BMP180;494;48.744;10.106;2022-09-21T01:02:19;96434.00;;;8.10
30765;BMP180;494;48.744;10.106;2022-09-21T01:04:52;96496.00;;;8.00
30765;BMP180;494;48.744;10.106;2022-09-21T01:07:25;96317.00;;;8.00
30765;BMP180;494;48.744;10.106;2022-09-21T01:10:00;96440.00;;;8.00
30765;BMP180;494;48.744;10.106;2022-09-21T01:12:48;96437.00;;;8.00
30765;BMP180;494;48.744;10.106;2022-09-21T01:15:28;96437.00;;;8.00
30765;BMP180;494;48.744;10.106;2022-09-21T01:18:10;96283.00;;;7.90
30765;BMP180;494;48.744;10.106;2022-09-21T01:21:11;96488.00;;;7.90
30765;BMP180;494;48.744;10.106;2022-09-21T01:24:30;96438.00;;;7.80
30765;BMP180;494;48.744;10.106;2022-09-21T01:27:48;96130.00;;;7.80
30765;BMP180;494;48.744;10.106;2022-09-21T01:30:23;96441.00;;;7.70
30765;BMP180;494;48.744;10.106;2022-09-21T01:33:01;96297.00;;;7.80
30765;BMP180;494;48.744;10.106;2022-09-21T01:35:36;96431.00;;;7.80
30765;BMP180;494;48.744;10.106;2022-09-21T01:38:09;96313.00;;;7.70
30765;BMP180;494;48.744;10.106;2022-09-21T01:40:43;96440.00;;;7.80
30765;BMP180;494;48.744;10.106;2022-09-21T01:43:23;96299.00;;;7.50
30765;BMP180;494;48.744;10.106;2022-09-21T01:45:58;96360.00;;;7.80
30765;BMP180;494;48.744;10.106;2022-09-21T01:48:35;96442.00;;;7.80
30765;BMP180;494;48.744;10.106;2022-09-21T01:51:10;96201.00;;;6.90
30765;BMP180;494;48.744;10.106;2022-09-21T01:53:44;96146.00;;;6.60
30765;BMP180;494;48.744;10.106;2022-09-21T01:56:21;96282.00;;;7.70
30765;BMP180;494;48.744;10.106;2022-09-21T01:59:02;96452.00;;;7.60
30765;BMP180;494;48.744;10.106;2022-09-21T02:01:37;96442.00;;;7.60
30765;BMP180;494;48.744;10.106;2022-09-21T02:04:10;96358.00;;;7.60
30765;BMP180;494;48.744;10.106;2022-09-21T02:06:45;96435.00;;;7.50
30765;BMP180;494;48.744;10.106;2022-09-21T02:09:14;96378.00;;;7.50
30765;BMP180;494;48.744;10.106;2022-09-21T02:11:43;96449.00;;;7.50
30765;BMP180;494;48.744;10.106;2022-09-21T02:14:16;96055.00;;;7.40
30765;BMP180;494;48.744;10.106;2022-09-21T02:16:54;96438.00;;;7.40
30765;BMP180;494;48.744;10.106;2022-09-21T02:19:37;96441.00;;;7.40
30765;BMP180;494;48.744;10.106;2022-09-21T02:22:14;96437.00;;;7.20
30765;BMP180;494;48.744;10.106;2022-09-21T02:24:48;96474.00;;;7.30
30765;BMP180;494;48.744;10.106;2022-09-21T02:27:30;96572.00;;;7.00
30765;BMP180;494;48.744;10.106;2022-09-21T02:30:06;96395.00;;;7.00
30765;BMP180;494;48.744;10.106;2022-09-21T02:32:47;96249.00;;;7.00
30765;BMP180;494;48.744;10.106;2022-09-21T02:35:30;96464.00;;;7.10
30765;BMP180;494;48.744;10.106;2022-09-21T02:38:08;96473.00;;;6.10
30765;BMP180;494;48.744;10.106;2022-09-21T02:40:42;95981.00;;;7.10
30765;BMP180;494;48.744;10.106;2022-09-21T02:43:20;96438.00;;;7.10
30765;BMP180;494;48.744;10.106;2022-09-21T02:45:55;96446.00;;;7.20
30765;BMP180;494;48.744;10.106;2022-09-21T02:48:33;96059.00;;;7.10
30765;BMP180;494;48.744;10.106;2022-09-21T02:51:09;96492.00;;;7.00
30765;BMP180;494;48.744;10.106;2022-09-21T02:53:39;96448.00;;;7.10
30765;BMP180;494;48.744;10.106;2022-09-21T02:56:09;96442.00;;;6.90
30765;BMP180;494;48.744;10.106;2022-09-21T02:58:45;96170.00;;;7.00
30765;BMP180;494;48.744;10.106;2022-09-21T03:01:16;96242.00;;;7.00
30765;BMP180;494;48.744;10.106;2022-09-21T03:03:47;96444.00;;;7.10
30765;BMP180;494;48.744;10.106;2022-09-21T03:06:16;96468.00;;;5.30
30765;BMP180;494;48.744;10.106;2022-09-21T03:08:45;96169.00;;;7.00
30765;BMP180;494;48.744;10.106;2022-09-21T03:11:16;96450.00;;;6.80
30765;BMP180;494;48.744;10.106;2022-09-21T03:13:45;96164.00;;;6.80
30765;BMP180;494;48.744;10.106;2022-09-21T03:16:13;96343.00;;;6.80
30765;BMP180;494;48.744;10.106;2022-09-21T03:18:42;96156.00;;;6.90
30765;BMP180;494;48.744;10.106;2022-09-21T03:21:12;96452.00;;;6.80
30765;BMP180;494;48.744;10.106;2022-09-21T03:23:41;96447.00;;;6.90
30765;BMP180;494;48.744;10.106;2022-09-21T03:26:09;95904.00;;;6.30
30765;BMP180;494;48.744;10.106;2022-09-21T03:28:37;96056.00;;;7.00
30765;BMP180;494;48.744;10.106;2022-09-21T03:31:06;96367.00;;;6.60
30765;BMP180;494;48.744;10.106;2022-09-21T03:33:34;96447.00;;;7.00
30765;BMP180;494;48.744;10.106;2022-09-21T03:36:03;96347.00;;;7.00
30765;BMP180;494;48.744;10.106;2022-09-21T03:38:33;96130.00;;;7.00
30765;BMP180;494;48.744;10.106;2022-09-21T03:41:02;96440.00;;;7.00
30765;BMP180;494;48.744;10.106;2022-09-21T03:43:31;96493.00;;;7.10
30765;BMP180;494;48.744;10.106;2022-09-21T03:46:00;96170.00;;;6.90
30765;BMP180;494;48.744;10.106;2022-09-21T03:48:28;96527.00;;;6.90
30765;BMP180;494;48.744;10.106;2022-09-21T03:50:58;96450.00;;;7.00
30765;BMP180;494;48.744;10.106;2022-09-21T03:53:27;96462.00;;;7.10
30765;BMP180;494;48.744;10.106;2022-09-21T03:55:58;96452.00;;;6.70
30765;BMP180;494;48.744;10.106;2022-09-21T03:58:26;96221.00;;;7.00
30765;BMP180;494;48.744;10.106;2022-09-21T04:01:01;96016.00;;;6.30
30765;BMP180;494;48.744;10.106;2022-09-21T04:03:30;96322.00;;;7.00
30765;BMP180;494;48.744;10.106;2022-09-21T04:05:58;96410.00;;;5.30
30765;BMP180;494;48.744;10.106;2022-09-21T04:08:27;96583.00;;;5.80
30765;BMP180;494;48.744;10.106;2022-09-21T04:11:00;96495.00;;;7.00
30765;BMP180;494;48.744;10.106;2022-09-21T04:13:29;96185.00;;;6.10
30765;BMP180;494;48.744;10.106;2022-09-21T04:15:57;96143.00;;;6.40
30765;BMP180;494;48.744;10.106;2022-09-21T04:18:26;96462.00;;;7.00
30765;BMP180;494;48.744;10.106;2022-09-21T04:20:54;96465.00;;;7.00
30765;BMP180;494;48.744;10.106;2022-09-21T04:23:23;96464.00;;;7.00
30765;BMP180;494;48.744;10.106;2022-09-21T04:25:53;96314.00;;;6.90
30765;BMP180;494;48.744;10.106;2022-09-21T04:28:24;96466.00;;;6.50
30765;BMP180;494;48.744;10.106;2022-09-21T04:30:53;95876.00;;;6.40
30765;BMP180;494;48.744;10.106;2022-09-21T04:33:22;96534.00;;;6.90
30765;BMP180;494;48.744;10.106;2022-09-21T04:35:54;96464.00;;;7.00
30765;BMP180;494;48.744;10.106;2022-09-21T04:38:23;96388.00;;;6.60
30765;BMP180;494;48.744;10.106;2022-09-21T04:40:55;96473.00;;;6.90
30765;BMP180;494;48.744;10.106;2022-09-21T04:43:26;96177.00;;;7.00
30765;BMP180;494;48.744;10.106;2022-09-21T04:45:54;96205.00;;;4.60
30765;BMP180;494;48.744;10.106;2022-09-21T04:48:23;96399.00;;;6.50
30765;BMP180;494;48.744;10.106;2022-09-21T04:50:51;96219.00;;;6.90
30765;BMP180;494;48.744;10.106;2022-09-21T04:53:20;96170.00;;;6.80
30765;BMP180;494;48.744;10.106;2022-09-21T04:55:49;96378.00;;;6.90
30765;BMP180;494;48.744;10.106;2022-09-21T04:58:18;96436.00;;;6.90
30765;BMP180;494;48.744;10.106;2022-09-21T05:00:52;96407.00;;;6.70
30765;BMP180;494;48.744;10.106;2022-09-21T05:03:24;96495.00;;;6.90
30765;BMP180;494;48.744;10.106;2022-09-21T05:05:55;96459.00;;;6.10
30765;BMP180;494;48.744;10.106;2022-09-21T05:08:26;96484.00;;;6.90
30765;BMP180;494;48.744;10.106;2022-09-21T05:11:11;96492.00;;;6.80
30765;BMP180;494;48.744;10.106;2022-09-21T05:13:40;96180.00;;;6.70
30765;BMP180;494;48.744;10.106;2022-09-21T05:16:10;95842.00;;;6.80
30765;BMP180;494;48.744;10.106;2022-09-21T05:18:39;96178.00;;;6.10
30765;BMP180;494;48.744;10.106;2022-09-21T05:21:10;96507.00;;;6.80
30765;BMP180;494;48.744;10.106;2022-09-21T05:23:39;96566.00;;;6.90
30765;BMP180;494;48.744;10.106;2022-09-21T05:26:07;96174.00;;;6.80
30765;BMP180;494;48.744;10.106;2022-09-21T05:28:37;96383.00;;;6.90
30765;BMP180;494;48.744;10.106;2022-09-21T05:31:35;95819.00;;;7.00
30765;BMP180;494;48.744;10.106;2022-09-21T05:34:20;96549.00;;;7.00
30765;BMP180;494;48.744;10.106;2022-09-21T05:36:59;96507.00;;;7.00
30765;BMP180;494;48.744;10.106;2022-09-21T05:39:30;96539.00;;;7.00
30765;BMP180;494;48.744;10.106;2022-09-21T05:41:59;96506.00;;;7.10
30765;BMP180;494;48.744;10.106;2022-09-21T05:44:28;96255.00;;;7.10
30765;BMP180;494;48.744;10.106;2022-09-21T05:47:05;96135.00;;;7.20
30765;BMP180;494;48.744;10.106;2022-09-21T05:49:50;96512.00;;;7.30
30765;BMP180;494;48.744;10.106;2022-09-21T05:52:33;96357.00;;;7.30
30765;BMP180;494;48.744;10.106;2022-09-21T05:55:15;96206.00;;;7.40
30765;BMP180;494;48.744;10.106;2022-09-21T05:57:57;96533.00;;;7.60
30765;BMP180;494;48.744;10.106;2022-09-21T06:00:39;96405.00;;;7.70
30765;BMP180;494;48.744;10.106;2022-09-21T06:03:26;96586.00;;;7.80
30765;BMP180;494;48.744;10.106;2022-09-21T06:05:55;96520.00;;;8.00
30765;BMP180;494;48.744;10.106;2022-09-21T06:08:25;96549.00;;;8.00
30765;BMP180;494;48.744;10.106;2022-09-21T06:10:54;95562.00;;;8.10
30765;BMP180;494;48.744;10.106;2022-09-21T06:13:23;96514.00;;;8.10
30765;BMP180;494;48.744;10.106;2022-09-21T06:15:52;96529.00;;;8.30
30765;BMP180;494;48.744;10.106;2022-09-21T06:18:22;96277.00;;;8.40
30765;BMP180;494;48.744;10.106;2022-09-21T06:20:50;96524.00;;;7.50
30765;BMP180;494;48.744;10.106;2022-09-21T06:23:19;96522.00;;;8.50
30765;BMP180;494;48.744;10.106;2022-09-21T06:25:50;96500.00;;;7.50
30765;BMP180;494;48.744;10.106;2022-09-21T06:28:25;96525.00;;;8.50
30765;BMP180;494;48.744;10.106;2022-09-21T06:30:55;96581.00;;;8.80
30765;BMP180;494;48.744;10.106;2022-09-21T06:33:25;96347.00;;;9.00
30765;BMP180;494;48.744;10.106;2022-09-21T06:35:56;96516.00;;;9.10
30765;BMP180;494;48.744;10.106;2022-09-21T06:38:27;96541.00;;;9.20
30765;BMP180;494;48.744;10.106;2022-09-21T06:41:00;96347.00;;;8.70
30765;BMP180;494;48.744;10.106;2022-09-21T06:43:30;96521.00;;;9.50
30765;BMP180;494;48.744;10.106;2022-09-21T06:46:00;96247.00;;;9.60
30765;BMP180;494;48.744;10.106;2022-09-21T06:48:33;96548.00;;;9.60
30765;BMP180;494;48.744;10.106;2022-09-21T06:51:04;96511.00;;;10.10
30765;BMP180;494;48.744;10.106;2022-09-21T06:53:33;96547.00;;;10.10
30765;BMP180;494;48.744;10.106;2022-09-21T06:56:04;96508.00;;;10.00
30765;BMP180;494;48.744;10.106;2022-09-21T06:58:33;96514.00;;;10.30
30765;BMP180;494;48.744;10.106;2022-09-21T07:01:05;96513.00;;;10.60
30765;BMP180;494;48.744;10.106;2022-09-21T07:03:37;96504.00;;;10.50
30765;BMP180;494;48.744;10.106;2022-09-21T07:06:08;96505.00;;;11.10
30765;BMP180;494;48.744;10.106;2022-09-21T07:08:37;96524.00;;;11.30
30765;BMP180;494;48.744;10.106;2022-09-21T07:11:26;96511.00;;;11.50
30765;BMP180;494;48.744;10.106;2022-09-21T07:13:55;96512.00;;;11.70
30765;BMP180;494;48.744;10.106;2022-09-21T07:16:24;96509.00;;;11.60
30765;BMP180;494;48.744;10.106;2022-09-21T07:18:55;96507.00;;;12.10
30765;BMP180;494;48.744;10.106;2022-09-21T07:21:36;96514.00;;;12.20
30765;BMP180;494;48.744;10.106;2022-09-21T07:24:05;96519.00;;;12.20
30765;BMP180;494;48.744;10.106;2022-09-21T07:26:38;96510.00;;;12.10
30765;BMP180;494;48.744;10.106;2022-09-21T07:29:07;96512.00;;;12.90
30765;BMP180;494;48.744;10.106;2022-09-21T07:31:36;96512.00;;;13.20
30765;BMP180;494;48.744;10.106;2022-09-21T07:34:06;96362.00;;;13.50
30765;BMP180;494;48.744;10.106;2022-09-21T07:36:34;96499.00;;;13.80
30765;BMP180;494;48.744;10.106;2022-09-21T07:39:03;96512.00;;;14.00
30765;BMP180;494;48.744;10.106;2022-09-21T07:41:32;96510.00;;;14.20
30765;BMP180;494;48.744;10.106;2022-09-21T07:44:01;96512.00;;;14.40
30765;BMP180;494;48.744;10.106;2022-09-21T07:46:29;96514.00;;;14.70
30765;BMP180;494;48.744;10.106;2022-09-21T07:48:58;96512.00;;;14.70
30765;BMP180;494;48.744;10.106;2022-09-21T07:51:27;96517.00;;;15.20
30765;BMP180;494;48.744;10.106;2022-09-21T07:53:56;96517.00;;;15.40
30765;BMP180;494;48.744;10.106;2022-09-21T07:56:25;96517.00;;;15.60
30765;BMP180;494;48.744;10.106;2022-09-21T07:58:53;96517.00;;;15.60
30765;BMP180;494;48.744;10.106;2022-09-21T08:01:34;96513.00;;;15.80
30765;BMP180;494;48.744;10.106;2022-09-21T08:04:06;96517.00;;;16.00
30765;BMP180;494;48.744;10.106;2022-09-21T08:06:37;96520.00;;;16.10
30765;BMP180;494;48.744;10.106;2022-09-21T08:09:07;96531.00;;;16.20
30765;BMP180;494;48.744;10.106;2022-09-21T08:11:35;96499.00;;;16.10
30765;BMP180;494;48.744;10.106;2022-09-21T08:14:05;96516.00;;;16.50
30765;BMP180;494;48.744;10.106;2022-09-21T08:16:33;96523.00;;;16.70
30765;BMP180;494;48.744;10.106;2022-09-21T08:19:04;96525.00;;;16.70
30765;BMP180;494;48.744;10.106;2022-09-21T08:21:33;96507.00;;;16.50
30765;BMP180;494;48.744;10.106;2022-09-21T08:24:03;96506.00;;;16.90
30765;BMP180;494;48.744;10.106;2022-09-21T08:26:32;96508.00;;;17.20
30765;BMP180;494;48.744;10.106;2022-09-21T08:29:01;96505.00;;;17.20
30765;BMP180;494;48.744;10.106;2022-09-21T08:31:29;96381.00;;;16.80
30765;BMP180;494;48.744;10.106;2022-09-21T08:33:58;96519.00;;;16.90
30765;BMP180;494;48.744;10.106;2022-09-21T08:36:27;96378.00;;;17.30
30765;BMP180;494;48.744;10.106;2022-09-21T08:38:55;96512.00;;;17.90
30765;BMP180;494;48.744;10.106;2022-09-21T08:41:50;96514.00;;;18.30
30765;BMP180;494;48.744;10.106;2022-09-21T08:44:24;96524.00;;;17.40
30765;BMP180;494;48.744;10.106;2022-09-21T08:47:03;96522.00;;;18.40
30765;BMP180;494;48.744;10.106;2022-09-21T08:49:35;96520.00;;;18.70
30765;BMP180;494;48.744;10.106;2022-09-21T08:52:11;96517.00;;;18.40
30765;BMP180;494;48.744;10.106;2022-09-21T08:54:50;96514.00;;;18.50
30765;BMP180;494;48.744;10.106;2022-09-21T08:57:24;96516.00;;;18.90
30765;BMP180;494;48.744;10.106;2022-09-21T08:59:53;96198.00;;;19.10
30765;BMP180;494;48.744;10.106;2022-09-21T09:02:40;96293.00;;;19.50
30765;BMP180;494;48.744;10.106;2022-09-21T09:05:33;96514.00;;;19.50
30765;BMP180;494;48.744;10.106;2022-09-21T09:08:39;96318.00;;;20.00
30765;BMP180;494;48.744;10.106;2022-09-21T09:11:36;96521.00;;;20.20
30765;BMP180;494;48.744;10.106;2022-09-21T09:14:44;96360.00;;;20.10
30765;BMP180;494;48.744;10.106;2022-09-21T09:17:34;96528.00;;;20.00
30765;BMP180;494;48.744;10.106;2022-09-21T09:20:13;96412.00;;;20.10
30765;BMP180;494;48.744;10.106;2022-09-21T09:22:55;96514.00;;;20.10
30765;BMP180;494;48.744;10.106;2022-09-21T09:25:33;96367.00;;;20.00
30765;BMP180;494;48.744;10.106;2022-09-21T09:28:16;96512.00;;;20.50
30765;BMP180;494;48.744;10.106;2022-09-21T09:30:57;96511.00;;;20.70
30765;BMP180;494;48.744;10.106;2022-09-21T09:33:39;96503.00;;;20.50
30765;BMP180;494;48.744;10.106;2022-09-21T09:36:12;96523.00;;;19.80
30765;BMP180;494;48.744;10.106;2022-09-21T09:38:47;96503.00;;;19.80
30765;BMP180;494;48.744;10.106;2022-09-21T09:44:41;96502.00;;;20.20
30765;BMP180;494;48.744;10.106;2022-09-21T09:47:30;96509.00;;;20.10
30765;BMP180;494;48.744;10.106;2022-09-21T09:50:08;96502.00;;;20.60
30765;BMP180;494;48.744;10.106;2022-09-21T09:52:39;96508.00;;;20.60
30765;BMP180;494;48.744;10.106;2022-09-21T09:55:18;96506.00;;;21.00
30765;BMP180;494;48.744;10.106;2022-09-21T09:57:48;96500.00;;;20.90
30765;BMP180;494;48.744;10.106;2022-09-21T10:00:19;96501.00;;;20.80
30765;BMP180;494;48.744;10.106;2022-09-21T10:02:52;96210.00;;;21.10
30765;BMP180;494;48.744;10.106;2022-09-21T10:05:24;96495.00;;;20.90
30765;BMP180;494;48.744;10.106;2022-09-21T10:07:58;96518.00;;;20.40
30765;BMP180;494;48.744;10.106;2022-09-21T10:10:34;96505.00;;;19.70
30765;BMP180;494;48.744;10.106;2022-09-21T10:13:12;96494.00;;;20.40
30765;BMP180;494;48.744;10.106;2022-09-21T10:15:49;96195.00;;;21.50
30765;BMP180;494;48.744;10.106;2022-09-21T10:18:23;95761.00;;;21.10
30765;BMP180;494;48.744;10.106;2022-09-21T10:21:01;96492.00;;;20.30
30765;BMP180;494;48.744;10.106;2022-09-21T10:23:31;96488.00;;;20.80
30765;BMP180;494;48.744;10.106;2022-09-21T10:26:03;96506.00;;;20.30
30765;BMP180;494;48.744;10.106;2022-09-21T10:28:33;96474.00;;;21.40
30765;BMP180;494;48.744;10.106;2022-09-21T10:31:18;96497.00;;;22.50
30765;BMP180;494;48.744;10.106;2022-09-21T10:33:54;96474.00;;;22.70
30765;BMP180;494;48.744;10.106;2022-09-21T10:36:34;96470.00;;;23.00
30765;BMP180;494;48.744;10.106;2022-09-21T10:39:21;96469.00;;;22.90
30765;BMP180;494;48.744;10.106;2022-09-21T10:41:54;96252.00;;;23.10
30765;BMP180;494;48.744;10.106;2022-09-21T10:44:28;96200.00;;;23.70
30765;BMP180;494;48.744;10.106;2022-09-21T10:47:21;96474.00;;;24.30
30765;BMP180;494;48.744;10.106;2022-09-21T10:49:54;96408.00;;;25.50
30765;BMP180;494;48.744;10.106;2022-09-21T10:52:32;96463.00;;;25.00
30765;BMP180;494;48.744;10.106;2022-09-21T10:55:01;96465.00;;;26.00
30765;BMP180;494;48.744;10.106;2022-09-21T10:57:32;96454.00;;;25.90
30765;BMP180;494;48.744;10.106;2022-09-21T11:00:24;96462.00;;;24.80
30765;BMP180;494;48.744;10.106;2022-09-21T11:02:57;96495.00;;;22.80
30765;BMP180;494;48.744;10.106;2022-09-21T11:05:32;96350.00;;;24.80
30765;BMP180;494;48.744;10.106;2022-09-21T11:08:08;96463.00;;;24.70
30765;BMP180;494;48.744;10.106;2022-09-21T11:10:48;96464.00;;;24.90
30765;BMP180;494;48.744;10.106;2022-09-21T11:13:27;96469.00;;;25.00
30765;BMP180;494;48.744;10.106;2022-09-21T11:16:10;96464.00;;;25.60
30765;BMP180;494;48.744;10.106;2022-09-21T11:18:50;96468.00;;;26.30
30765;BMP180;494;48.744;10.106;2022-09-21T11:21:34;96471.00;;;26.00
30765;BMP180;494;48.744;10.106;2022-09-21T11:24:19;96473.00;;;26.50
30765;BMP180;494;48.744;10.106;2022-09-21T11:26:53;96469.00;;;26.70
30765;BMP180;494;48.744;10.106;2022-09-21T11:29:30;96465.00;;;26.30
30765;BMP180;494;48.744;10.106;2022-09-21T11:32:28;96467.00;;;25.70
30765;BMP180;494;48.744;10.106;2022-09-21T11:35:33;96410.00;;;26.10
30765;BMP180;494;48.744;10.106;2022-09-21T11:38:15;96458.00;;;25.60
30765;BMP180;494;48.744;10.106;2022-09-21T11:41:17;96494.00;;;25.20
30765;BMP180;494;48.744;10.106;2022-09-21T11:44:12;96452.00;;;24.40
30765;BMP180;494;48.744;10.106;2022-09-21T11:46:55;96458.00;;;25.50
30765;BMP180;494;48.744;10.106;2022-09-21T11:49:47;96463.00;;;26.30
30765;BMP180;494;48.744;10.106;2022-09-21T11:52:53;96456.00;;;26.80
30765;BMP180;494;48.744;10.106;2022-09-21T11:55:45;96453.00;;;26.10
30765;BMP180;494;48.744;10.106;2022-09-21T11:58:25;96464.00;;;25.80
30765;BMP180;494;48.744;10.106;2022-09-21T12:01:08;96504.00;;;26.00
30765;BMP180;494;48.744;10.106;2022-09-21T12:04:00;96455.00;;;26.20
30765;BMP180;494;48.744;10.106;2022-09-21T12:06:47;96453.00;;;26.50
30765;BMP180;494;48.744;10.106;2022-09-21T12:12:20;96458.00;;;25.40
30765;BMP180;494;48.744;10.106;2022-09-21T12:14:58;96473.00;;;24.80
30765;BMP180;494;48.744;10.106;2022-09-21T12:17:41;96265.00;;;24.30
30765;BMP180;494;48.744;10.106;2022-09-21T12:20:19;96462.00;;;24.30
30765;BMP180;494;48.744;10.106;2022-09-21T12:22:57;96472.00;;;25.30
30765;BMP180;494;48.744;10.106;2022-09-21T12:25:33;96438.00;;;26.00
30765;BMP180;494;48.744;10.106;2022-09-21T12:28:11;96444.00;;;26.40
30765;BMP180;494;48.744;10.106;2022-09-21T12:30:47;96078.00;;;26.90
30765;BMP180;494;48.744;10.106;2022-09-21T12:33:29;96439.00;;;26.60
30765;BMP180;494;48.744;10.106;2022-09-21T12:36:07;96300.00;;;25.40
30765;BMP180;494;48.744;10.106;2022-09-21T12:38:44;96373.00;;;25.90
30765;BMP180;494;48.744;10.106;2022-09-21T12:41:23;96437.00;;;26.60
30765;BMP180;494;48.744;10.106;2022-09-21T12:44:05;96435.00;;;27.80
30765;BMP180;494;48.744;10.106;2022-09-21T12:46:44;96424.00;;;28.40
30765;BMP180;494;48.744;10.106;2022-09-21T12:49:27;96425.00;;;28.70
30765;BMP180;494;48.744;10.106;2022-09-21T12:52:01;96432.00;;;28.30
30765;BMP180;494;48.744;10.106;2022-09-21T12:54:39;96428.00;;;28.50
30765;BMP180;494;48.744;10.106;2022-09-21T12:57:27;96431.00;;;28.60
30765;BMP180;494;48.744;10.106;2022-09-21T13:00:20;96435.00;;;29.30
30765;BMP180;494;48.744;10.106;2022-09-21T13:02:56;96461.00;;;29.00
30765;BMP180;494;48.744;10.106;2022-09-21T13:05:37;96431.00;;;28.10
30765;BMP180;494;48.744;10.106;2022-09-21T13:08:10;96437.00;;;28.20
30765;BMP180;494;48.744;10.106;2022-09-21T13:10:47;96380.00;;;26.30
30765;BMP180;494;48.744;10.106;2022-09-21T13:13:30;96437.00;;;23.90
30765;BMP180;494;48.744;10.106;2022-09-21T13:16:02;96435.00;;;23.40
30765;BMP180;494;48.744;10.106;2022-09-21T13:18:33;96436.00;;;23.20
30765;BMP180;494;48.744;10.106;2022-09-21T13:21:16;96458.00;;;23.70
30765;BMP180;494;48.744;10.106;2022-09-21T13:23:54;96442.00;;;23.90
30765;BMP180;494;48.744;10.106;2022-09-21T13:26:36;96205.00;;;25.80
30765;BMP180;494;48.744;10.106;2022-09-21T13:29:28;96436.00;;;26.20
30765;BMP180;494;48.744;10.106;2022-09-21T13:32:01;96462.00;;;27.60
30765;BMP180;494;48.744;10.106;2022-09-21T13:34:33;96488.00;;;25.90
30765;BMP180;494;48.744;10.106;2022-09-21T13:37:27;96171.00;;;27.90
30765;BMP180;494;48.744;10.106;2022-09-21T13:40:38;96427.00;;;28.30
30765;BMP180;494;48.744;10.106;2022-09-21T13:43:23;96201.00;;;29.50
30765;BMP180;494;48.744;10.106;2022-09-21T13:45:55;96437.00;;;30.00
30765;BMP180;494;48.744;10.106;2022-09-21T13:48:28;96433.00;;;29.80
30765;BMP180;494;48.744;10.106;2022-09-21T13:51:00;96428.00;;;29.70
30765;BMP180;494;48.744;10.106;2022-09-21T13:53:37;96423.00;;;30.00
30765;BMP180;494;48.744;10.106;2022-09-21T13:56:20;96244.00;;;29.20
30765;BMP180;494;48.744;10.106;2022-09-21T13:58:54;96415.00;;;29.60
30765;BMP180;494;48.744;10.106;2022-09-21T14:01:31;96414.00;;;29.80
30765;BMP180;494;48.744;10.106;2022-09-21T14:04:24;96414.00;;;29.70
30765;BMP180;494;48.744;10.106;2022-09-21T14:06:54;96410.00;;;29.40
30765;BMP180;494;48.744;10.106;2022-09-21T14:09:29;96415.00;;;29.20
30765;BMP180;494;48.744;10.106;2022-09-21T14:12:02;96406.00;;;29.50
30765;BMP180;494;48.744;10.106;2022-09-21T14:14:36;96399.00;;;29.90
30765;BMP180;494;48.744;10.106;2022-09-21T14:17:36;96409.00;;;30.30
30765;BMP180;494;48.744;10.106;2022-09-21T14:20:26;96412.00;;;30.60
30765;BMP180;494;48.744;10.106;2022-09-21T14:23:27;96413.00;;;30.30
30765;BMP180;494;48.744;10.106;2022-09-21T14:25:57;96413.00;;;29.20
30765;BMP180;494;48.744;10.106;2022-09-21T14:28:34;96420.00;;;28.20
30765;BMP180;494;48.744;10.106;2022-09-21T14:31:12;96217.00;;;28.10
30765;BMP180;494;48.744;10.106;2022-09-21T14:33:47;96411.00;;;27.80
30765;BMP180;494;48.744;10.106;2022-09-21T14:36:21;96447.00;;;27.60
30765;BMP180;494;48.744;10.106;2022-09-21T14:39:01;96399.00;;;28.00
30765;BMP180;494;48.744;10.106;2022-09-21T14:41:38;96398.00;;;28.70
30765;BMP180;494;48.744;10.106;2022-09-21T14:44:18;96351.00;;;29.00
30765;BMP180;494;48.744;10.106;2022-09-21T14:47:14;96398.00;;;28.90
30765;BMP180;494;48.744;10.106;2022-09-21T14:50:01;96238.00;;;29.20
30765;BMP180;494;48.744;10.106;2022-09-21T14:52:50;96400.00;;;29.10
30765;BMP180;494;48.744;10.106;2022-09-21T14:55:31;96389.00;;;29.60
30765;BMP180;494;48.744;10.106;2022-09-21T14:58:23;96423.00;;;29.80
30765;BMP180;494;48.744;10.106;2022-09-21T15:00:54;96389.00;;;29.70
30765;BMP180;494;48.744;10.106;2022-09-21T15:03:48;96384.00;;;29.80
30765;BMP180;494;48.744;10.106;2022-09-21T15:06:33;96378.00;;;28.70
30765;BMP180;494;48.744;10.106;2022-09-21T15:09:45;96250.00;;;26.60
30765;BMP180;494;48.744;10.106;2022-09-21T15:12:46;96395.00;;;26.30
30765;BMP180;494;48.744;10.106;2022-09-21T15:15:34;96409.00;;;26.80
30765;BMP180;494;48.744;10.106;2022-09-21T15:18:14;96293.00;;;27.40
30765;BMP180;494;48.744;10.106;2022-09-21T15:20:55;96405.00;;;27.30
30765;BMP180;494;48.744;10.106;2022-09-21T15:23:33;96162.00;;;27.30
30765;BMP180;494;48.744;10.106;2022-09-21T15:26:06;96412.00;;;26.80